sensor_id;sensor_type;location;lat;lon;timestamp;temperature;humidity
65462;DHT22;53236;43.666;18.444;2023-05-07T00:00:04;7.70;99.90
65462;DHT22;53236;43.666;18.444;2023-05-07T00:02:33;7.60;99.90
65462;DHT22;53236;43.666;18.444;2023-05-07T00:04:59;7.60;99.90
65462;DHT22;53236;43.666;18.444;2023-05-07T00:07:25;7.50;99.90
65462;DHT22;53236;43.666;18.444;2023-05-07T00:09:50;7.50;99.90
65462;DHT22;53236;43.666;18.444;2023-05-07T00:12:16;7.50;99.90
65462;DHT22;53236;43.666;18.444;2023-05-07T00:14:42;7.50;99.90
65462;DHT22;53236;43.666;18.444;2023-05-07T00:17:08;7.50;99.90
65462;DHT22;53236;43.666;18.444;2023-05-07T00:19:33;7.50;99.90
65462;DHT22;53236;43.666;18.444;2023-05-07T00:21:59;7.40;99.90
65462;DHT22;53236;43.666;18.444;2023-05-07T00:24:25;7.30;99.90
65462;DHT22;53236;43.666;18.444;2023-05-07T00:26:51;7.20;99.90
65462;DHT22;53236;43.666;18.444;2023-05-07T00:29:18;7.00;99.90
65462;DHT22;53236;43.666;18.444;2023-05-07T00:31:44;7.10;99.90
65462;DHT22;53236;43.666;18.444;2023-05-07T00:34:09;7.00;99.90
65462;DHT22;53236;43.666;18.444;2023-05-07T00:36:35;7.00;99.90
65462;DHT22;53236;43.666;18.444;2023-05-07T00:39:01;7.00;99.90
65462;DHT22;53236;43.666;18.444;2023-05-07T00:41:29;7.00;99.90
65462;DHT22;53236;43.666;18.444;2023-05-07T00:43:56;7.00;99.90
65462;DHT22;53236;43.666;18.444;2023-05-07T00:46:23;7.00;99.90
65462;DHT22;53236;43.666;18.444;2023-05-07T00:48:50;7.00;99.90
65462;DHT22;53236;43.666;18.444;2023-05-07T00:51:17;7.00;99.90
65462;DHT22;53236;43.666;18.444;2023-05-07T00:53:43;7.00;99.90
65462;DHT22;53236;43.666;18.444;2023-05-07T00:56:10;6.90;99.90
65462;DHT22;53236;43.666;18.444;2023-05-07T00:58:36;6.90;99.90
65462;DHT22;53236;43.666;18.444;2023-05-07T01:01:02;6.80;99.90
65462;DHT22;53236;43.666;18.444;2023-05-07T01:03:28;6.80;99.90
65462;DHT22;53236;43.666;18.444;2023-05-07T01:05:55;6.70;99.90
65462;DHT22;53236;43.666;18.444;2023-05-07T01:08:23;6.70;99.90
65462;DHT22;53236;43.666;18.444;2023-05-07T01:10:50;6.60;99.90
65462;DHT22;53236;43.666;18.444;2023-05-07T01:13:18;6.60;99.90
65462;DHT22;53236;43.666;18.444;2023-05-07T01:15:45;6.60;99.90
65462;DHT22;53236;43.666;18.444;2023-05-07T01:18:10;6.60;99.90
65462;DHT22;53236;43.666;18.444;2023-05-07T01:20:36;6.60;99.90
65462;DHT22;53236;43.666;18.444;2023-05-07T01:23:03;6.60;99.90
65462;DHT22;53236;43.666;18.444;2023-05-07T01:25:29;6.40;99.90
65462;DHT22;53236;43.666;18.444;2023-05-07T01:27:56;6.40;99.90
65462;DHT22;53236;43.666;18.444;2023-05-07T01:30:22;6.30;99.90
65462;DHT22;53236;43.666;18.444;2023-05-07T01:32:53;6.40;99.90
65462;DHT22;53236;43.666;18.444;2023-05-07T01:35:25;6.30;99.90
65462;DHT22;53236;43.666;18.444;2023-05-07T01:37:52;6.30;99.90
65462;DHT22;53236;43.666;18.444;2023-05-07T01:40:18;6.30;99.90
65462;DHT22;53236;43.666;18.444;2023-05-07T01:42:45;6.50;99.90
65462;DHT22;53236;43.666;18.444;2023-05-07T01:45:11;6.50;99.90
65462;DHT22;53236;43.666;18.444;2023-05-07T01:47:37;6.50;99.90
65462;DHT22;53236;43.666;18.444;2023-05-07T01:50:07;6.40;99.90
65462;DHT22;53236;43.666;18.444;2023-05-07T01:52:39;6.30;99.90
65462;DHT22;53236;43.666;18.444;2023-05-07T01:55:06;6.30;99.90
65462;DHT22;53236;43.666;18.444;2023-05-07T01:57:31;6.30;99.90
65462;DHT22;53236;43.666;18.444;2023-05-07T01:59:57;6.20;99.90
65462;DHT22;53236;43.666;18.444;2023-05-07T02:02:23;6.00;99.90
65462;DHT22;53236;43.666;18.444;2023-05-07T02:04:49;6.00;99.90
65462;DHT22;53236;43.666;18.444;2023-05-07T02:07:15;6.00;99.90
65462;DHT22;53236;43.666;18.444;2023-05-07T02:09:41;5.90;99.90
65462;DHT22;53236;43.666;18.444;2023-05-07T02:12:06;5.90;99.90
65462;DHT22;53236;43.666;18.444;2023-05-07T02:14:32;5.90;99.90
65462;DHT22;53236;43.666;18.444;2023-05-07T02:16:58;5.90;99.90
65462;DHT22;53236;43.666;18.444;2023-05-07T02:19:23;5.90;99.90
65462;DHT22;53236;43.666;18.444;2023-05-07T02:21:49;5.80;99.90
65462;DHT22;53236;43.666;18.444;2023-05-07T02:24:15;5.80;99.90
65462;DHT22;53236;43.666;18.444;2023-05-07T02:26:41;5.90;99.90
65462;DHT22;53236;43.666;18.444;2023-05-07T02:29:07;5.80;99.90
65462;DHT22;53236;43.666;18.444;2023-05-07T02:31:33;5.80;99.90
65462;DHT22;53236;43.666;18.444;2023-05-07T02:34:00;5.80;99.90
65462;DHT22;53236;43.666;18.444;2023-05-07T02:36:26;5.80;99.90
65462;DHT22;53236;43.666;18.444;2023-05-07T02:38:54;5.80;99.90
65462;DHT22;53236;43.666;18.444;2023-05-07T02:41:20;5.70;99.90
65462;DHT22;53236;43.666;18.444;2023-05-07T02:43:46;5.60;99.90
65462;DHT22;53236;43.666;18.444;2023-05-07T02:46:11;5.60;99.90
65462;DHT22;53236;43.666;18.444;2023-05-07T02:48:37;5.50;99.90
65462;DHT22;53236;43.666;18.444;2023-05-07T02:51:04;5.40;99.90
65462;DHT22;53236;43.666;18.444;2023-05-07T02:53:31;5.40;99.90
65462;DHT22;53236;43.666;18.444;2023-05-07T02:55:58;5.50;99.90
65462;DHT22;53236;43.666;18.444;2023-05-07T02:58:24;5.50;99.90
65462;DHT22;53236;43.666;18.444;2023-05-07T03:00:50;5.50;99.90
65462;DHT22;53236;43.666;18.444;2023-05-07T03:03:16;5.50;99.90
65462;DHT22;53236;43.666;18.444;2023-05-07T03:05:42;5.50;99.90
65462;DHT22;53236;43.666;18.444;2023-05-07T03:08:08;5.50;99.90
65462;DHT22;53236;43.666;18.444;2023-05-07T03:10:34;5.40;99.90
65462;DHT22;53236;43.666;18.444;2023-05-07T03:13:01;5.40;99.90
65462;DHT22;53236;43.666;18.444;2023-05-07T03:15:27;5.40;99.90
65462;DHT22;53236;43.666;18.444;2023-05-07T03:17:52;5.30;99.90
65462;DHT22;53236;43.666;18.444;2023-05-07T03:20:18;5.30;99.90
65462;DHT22;53236;43.666;18.444;2023-05-07T03:22:44;5.30;99.90
65462;DHT22;53236;43.666;18.444;2023-05-07T03:25:10;5.40;99.90
65462;DHT22;53236;43.666;18.444;2023-05-07T03:27:36;5.40;99.90
65462;DHT22;53236;43.666;18.444;2023-05-07T03:30:03;5.40;99.90
65462;DHT22;53236;43.666;18.444;2023-05-07T03:32:29;5.30;99.90
65462;DHT22;53236;43.666;18.444;2023-05-07T03:34:55;5.30;99.90
65462;DHT22;53236;43.666;18.444;2023-05-07T03:37:21;5.30;99.90
65462;DHT22;53236;43.666;18.444;2023-05-07T03:39:47;5.30;99.90
65462;DHT22;53236;43.666;18.444;2023-05-07T03:42:14;5.40;99.90
65462;DHT22;53236;43.666;18.444;2023-05-07T03:44:40;5.50;99.90
65462;DHT22;53236;43.666;18.444;2023-05-07T03:47:05;5.50;99.90
65462;DHT22;53236;43.666;18.444;2023-05-07T03:49:31;5.30;99.90
65462;DHT22;53236;43.666;18.444;2023-05-07T03:51:57;5.20;99.90
65462;DHT22;53236;43.666;18.444;2023-05-07T03:54:23;5.20;99.90
65462;DHT22;53236;43.666;18.444;2023-05-07T03:56:48;5.20;99.90
65462;DHT22;53236;43.666;18.444;2023-05-07T03:59:14;5.30;99.90
65462;DHT22;53236;43.666;18.444;2023-05-07T04:01:40;5.40;99.90
65462;DHT22;53236;43.666;18.444;2023-05-07T04:04:06;5.40;99.90
65462;DHT22;53236;43.666;18.444;2023-05-07T04:06:32;5.50;99.90
65462;DHT22;53236;43.666;18.444;2023-05-07T04:08:57;5.60;99.90
65462;DHT22;53236;43.666;18.444;2023-05-07T04:11:23;5.70;99.90
65462;DHT22;53236;43.666;18.444;2023-05-07T04:13:49;5.80;99.90
65462;DHT22;53236;43.666;18.444;2023-05-07T04:16:15;5.80;99.90
65462;DHT22;53236;43.666;18.444;2023-05-07T04:18:41;5.80;99.90
65462;DHT22;53236;43.666;18.444;2023-05-07T04:21:17;5.80;99.90
65462;DHT22;53236;43.666;18.444;2023-05-07T04:23:43;5.90;99.90
65462;DHT22;53236;43.666;18.444;2023-05-07T04:26:09;5.90;99.90
65462;DHT22;53236;43.666;18.444;2023-05-07T04:28:35;6.00;99.90
65462;DHT22;53236;43.666;18.444;2023-05-07T04:31:00;6.10;99.90
65462;DHT22;53236;43.666;18.444;2023-05-07T04:33:26;6.20;99.90
65462;DHT22;53236;43.666;18.444;2023-05-07T04:35:52;6.40;99.90
65462;DHT22;53236;43.666;18.444;2023-05-07T04:38:18;6.80;99.90
65462;DHT22;53236;43.666;18.444;2023-05-07T04:40:44;7.90;99.90
65462;DHT22;53236;43.666;18.444;2023-05-07T04:43:10;9.00;99.90
65462;DHT22;53236;43.666;18.444;2023-05-07T04:45:36;10.10;99.90
65462;DHT22;53236;43.666;18.444;2023-05-07T04:48:02;11.10;99.90
65462;DHT22;53236;43.666;18.444;2023-05-07T04:50:28;12.00;99.00
65462;DHT22;53236;43.666;18.444;2023-05-07T04:52:54;13.00;96.00
65462;DHT22;53236;43.666;18.444;2023-05-07T04:55:19;14.10;87.50
65462;DHT22;53236;43.666;18.444;2023-05-07T04:57:45;14.80;78.30
65462;DHT22;53236;43.666;18.444;2023-05-07T05:00:11;15.90;75.00
65462;DHT22;53236;43.666;18.444;2023-05-07T05:02:40;16.70;69.70
65462;DHT22;53236;43.666;18.444;2023-05-07T05:05:07;17.50;65.20
65462;DHT22;53236;43.666;18.444;2023-05-07T05:07:33;18.40;61.80
65462;DHT22;53236;43.666;18.444;2023-05-07T05:09:59;18.90;59.20
65462;DHT22;53236;43.666;18.444;2023-05-07T05:12:25;19.70;57.80
65462;DHT22;53236;43.666;18.444;2023-05-07T05:14:51;20.30;56.50
65462;DHT22;53236;43.666;18.444;2023-05-07T05:17:16;20.60;54.00
65462;DHT22;53236;43.666;18.444;2023-05-07T05:19:42;21.30;53.30
65462;DHT22;53236;43.666;18.444;2023-05-07T05:22:08;21.90;51.50
65462;DHT22;53236;43.666;18.444;2023-05-07T05:24:33;22.30;51.70
65462;DHT22;53236;43.666;18.444;2023-05-07T05:26:59;22.40;51.10
65462;DHT22;53236;43.666;18.444;2023-05-07T05:29:28;23.40;50.10
65462;DHT22;53236;43.666;18.444;2023-05-07T05:31:54;24.00;47.60
65462;DHT22;53236;43.666;18.444;2023-05-07T05:34:19;24.40;47.00
65462;DHT22;53236;43.666;18.444;2023-05-07T05:36:45;24.60;47.20
65462;DHT22;53236;43.666;18.444;2023-05-07T05:39:11;25.80;46.20
65462;DHT22;53236;43.666;18.444;2023-05-07T05:41:38;26.20;44.20
65462;DHT22;53236;43.666;18.444;2023-05-07T05:44:03;26.50;44.70
65462;DHT22;53236;43.666;18.444;2023-05-07T05:46:29;26.00;43.80
65462;DHT22;53236;43.666;18.444;2023-05-07T05:48:55;26.70;44.00
65462;DHT22;53236;43.666;18.444;2023-05-07T05:51:22;28.00;43.00
65462;DHT22;53236;43.666;18.444;2023-05-07T05:53:48;27.80;42.30
65462;DHT22;53236;43.666;18.444;2023-05-07T05:56:15;28.60;43.00
65462;DHT22;53236;43.666;18.444;2023-05-07T05:58:41;29.50;42.20
65462;DHT22;53236;43.666;18.444;2023-05-07T06:01:07;30.60;40.60
65462;DHT22;53236;43.666;18.444;2023-05-07T06:03:33;31.30;39.30
65462;DHT22;53236;43.666;18.444;2023-05-07T06:05:58;32.00;38.80
65462;DHT22;53236;43.666;18.444;2023-05-07T06:08:28;31.50;38.30
65462;DHT22;53236;43.666;18.444;2023-05-07T06:10:54;31.30;39.40
65462;DHT22;53236;43.666;18.444;2023-05-07T06:13:20;31.10;39.40
65462;DHT22;53236;43.666;18.444;2023-05-07T06:15:46;30.80;40.30
65462;DHT22;53236;43.666;18.444;2023-05-07T06:18:11;29.90;40.00
65462;DHT22;53236;43.666;18.444;2023-05-07T06:20:37;29.90;41.00
65462;DHT22;53236;43.666;18.444;2023-05-07T06:23:03;30.10;39.80
65462;DHT22;53236;43.666;18.444;2023-05-07T06:25:28;31.10;40.50
65462;DHT22;53236;43.666;18.444;2023-05-07T06:27:54;31.20;40.00
65462;DHT22;53236;43.666;18.444;2023-05-07T06:30:20;31.40;38.90
65462;DHT22;53236;43.666;18.444;2023-05-07T06:32:46;31.40;40.00
65462;DHT22;53236;43.666;18.444;2023-05-07T06:35:11;32.50;39.00
65462;DHT22;53236;43.666;18.444;2023-05-07T06:37:38;33.40;38.30
65462;DHT22;53236;43.666;18.444;2023-05-07T06:40:05;33.40;37.70
65462;DHT22;53236;43.666;18.444;2023-05-07T06:42:32;33.90;37.60
65462;DHT22;53236;43.666;18.444;2023-05-07T06:44:58;32.10;38.90
65462;DHT22;53236;43.666;18.444;2023-05-07T06:47:24;32.70;38.20
65462;DHT22;53236;43.666;18.444;2023-05-07T06:49:49;32.40;39.10
65462;DHT22;53236;43.666;18.444;2023-05-07T06:52:15;32.10;39.20
65462;DHT22;53236;43.666;18.444;2023-05-07T06:54:41;32.90;38.90
65462;DHT22;53236;43.666;18.444;2023-05-07T06:57:07;32.70;38.50
65462;DHT22;53236;43.666;18.444;2023-05-07T06:59:32;33.10;40.10
65462;DHT22;53236;43.666;18.444;2023-05-07T07:01:58;34.90;38.10
65462;DHT22;53236;43.666;18.444;2023-05-07T07:04:24;36.40;36.80
65462;DHT22;53236;43.666;18.444;2023-05-07T07:06:53;35.20;36.80
65462;DHT22;53236;43.666;18.444;2023-05-07T07:09:19;36.40;36.40
65462;DHT22;53236;43.666;18.444;2023-05-07T07:11:45;36.80;35.10
65462;DHT22;53236;43.666;18.444;2023-05-07T07:14:10;38.30;35.10
65462;DHT22;53236;43.666;18.444;2023-05-07T07:16:36;38.50;34.90
65462;DHT22;53236;43.666;18.444;2023-05-07T07:19:02;39.20;34.10
65462;DHT22;53236;43.666;18.444;2023-05-07T07:21:28;38.50;34.50
65462;DHT22;53236;43.666;18.444;2023-05-07T07:23:53;39.80;33.70
65462;DHT22;53236;43.666;18.444;2023-05-07T07:26:19;38.80;33.50
65462;DHT22;53236;43.666;18.444;2023-05-07T07:28:45;39.50;33.70
65462;DHT22;53236;43.666;18.444;2023-05-07T07:31:12;39.00;33.40
65462;DHT22;53236;43.666;18.444;2023-05-07T07:33:38;39.10;33.20
65462;DHT22;53236;43.666;18.444;2023-05-07T07:36:05;40.20;33.70
65462;DHT22;53236;43.666;18.444;2023-05-07T07:38:31;40.40;32.80
65462;DHT22;53236;43.666;18.444;2023-05-07T07:40:57;40.00;32.80
65462;DHT22;53236;43.666;18.444;2023-05-07T07:43:23;41.50;32.70
65462;DHT22;53236;43.666;18.444;2023-05-07T07:45:49;42.40;31.70
65462;DHT22;53236;43.666;18.444;2023-05-07T07:48:15;41.80;32.10
65462;DHT22;53236;43.666;18.444;2023-05-07T07:50:40;41.10;32.30
65462;DHT22;53236;43.666;18.444;2023-05-07T07:53:06;41.80;32.00
65462;DHT22;53236;43.666;18.444;2023-05-07T07:55:32;40.30;31.10
65462;DHT22;53236;43.666;18.444;2023-05-07T07:57:58;40.80;31.00
65462;DHT22;53236;43.666;18.444;2023-05-07T08:00:24;41.30;31.20
65462;DHT22;53236;43.666;18.444;2023-05-07T08:02:49;41.50;31.10
65462;DHT22;53236;43.666;18.444;2023-05-07T08:05:15;39.90;32.00
65462;DHT22;53236;43.666;18.444;2023-05-07T08:07:41;39.90;31.50
65462;DHT22;53236;43.666;18.444;2023-05-07T08:10:07;39.60;33.00
65462;DHT22;53236;43.666;18.444;2023-05-07T08:12:33;39.00;32.00
65462;DHT22;53236;43.666;18.444;2023-05-07T08:14:58;39.70;31.70
65462;DHT22;53236;43.666;18.444;2023-05-07T08:17:24;38.80;32.60
65462;DHT22;53236;43.666;18.444;2023-05-07T08:19:50;38.90;32.30
65462;DHT22;53236;43.666;18.444;2023-05-07T08:22:16;37.50;33.10
65462;DHT22;53236;43.666;18.444;2023-05-07T08:24:43;37.00;33.40
65462;DHT22;53236;43.666;18.444;2023-05-07T08:27:10;37.10;34.10
65462;DHT22;53236;43.666;18.444;2023-05-07T08:29:36;37.20;35.00
65462;DHT22;53236;43.666;18.444;2023-05-07T08:32:01;37.30;33.10
65462;DHT22;53236;43.666;18.444;2023-05-07T08:34:27;35.80;34.90
65462;DHT22;53236;43.666;18.444;2023-05-07T08:36:53;34.70;34.90
65462;DHT22;53236;43.666;18.444;2023-05-07T08:39:19;34.40;35.60
65462;DHT22;53236;43.666;18.444;2023-05-07T08:41:45;33.40;37.80
65462;DHT22;53236;43.666;18.444;2023-05-07T08:44:13;32.50;37.40
65462;DHT22;53236;43.666;18.444;2023-05-07T08:46:41;32.10;38.20
65462;DHT22;53236;43.666;18.444;2023-05-07T08:49:09;31.30;38.60
65462;DHT22;53236;43.666;18.444;2023-05-07T08:51:35;30.80;39.20
65462;DHT22;53236;43.666;18.444;2023-05-07T08:54:01;30.10;40.20
65462;DHT22;53236;43.666;18.444;2023-05-07T08:56:27;29.40;41.70
65462;DHT22;53236;43.666;18.444;2023-05-07T08:58:53;29.10;40.90
65462;DHT22;53236;43.666;18.444;2023-05-07T09:01:24;28.50;41.80
65462;DHT22;53236;43.666;18.444;2023-05-07T09:03:51;28.40;42.10
65462;DHT22;53236;43.666;18.444;2023-05-07T09:06:19;28.10;42.80
65462;DHT22;53236;43.666;18.444;2023-05-07T09:08:54;28.20;43.50
65462;DHT22;53236;43.666;18.444;2023-05-07T09:11:24;28.20;42.20
65462;DHT22;53236;43.666;18.444;2023-05-07T09:13:57;27.90;42.60
65462;DHT22;53236;43.666;18.444;2023-05-07T09:16:29;27.80;43.30
65462;DHT22;53236;43.666;18.444;2023-05-07T09:18:58;27.60;43.00
65462;DHT22;53236;43.666;18.444;2023-05-07T09:21:24;27.10;42.90
65462;DHT22;53236;43.666;18.444;2023-05-07T09:23:54;26.90;45.00
65462;DHT22;53236;43.666;18.444;2023-05-07T09:26:24;26.40;44.10
65462;DHT22;53236;43.666;18.444;2023-05-07T09:28:50;25.90;45.20
65462;DHT22;53236;43.666;18.444;2023-05-07T09:31:16;25.90;44.40
65462;DHT22;53236;43.666;18.444;2023-05-07T09:33:42;26.00;43.40
65462;DHT22;53236;43.666;18.444;2023-05-07T09:36:09;25.90;42.90
65462;DHT22;53236;43.666;18.444;2023-05-07T09:38:36;25.60;43.30
65462;DHT22;53236;43.666;18.444;2023-05-07T09:41:05;25.40;42.40
65462;DHT22;53236;43.666;18.444;2023-05-07T09:43:35;25.20;42.10
65462;DHT22;53236;43.666;18.444;2023-05-07T09:46:05;25.30;42.50
65462;DHT22;53236;43.666;18.444;2023-05-07T09:48:34;25.10;42.50
65462;DHT22;53236;43.666;18.444;2023-05-07T09:51:02;25.10;43.50
65462;DHT22;53236;43.666;18.444;2023-05-07T09:53:33;25.20;42.10
65462;DHT22;53236;43.666;18.444;2023-05-07T09:55:59;25.20;40.80
65462;DHT22;53236;43.666;18.444;2023-05-07T09:58:26;25.20;39.50
65462;DHT22;53236;43.666;18.444;2023-05-07T10:00:52;25.20;40.90
65462;DHT22;53236;43.666;18.444;2023-05-07T10:03:19;25.00;38.50
65462;DHT22;53236;43.666;18.444;2023-05-07T10:05:47;25.00;39.70
65462;DHT22;53236;43.666;18.444;2023-05-07T10:08:13;24.90;39.20
65462;DHT22;53236;43.666;18.444;2023-05-07T10:10:42;24.80;40.20
65462;DHT22;53236;43.666;18.444;2023-05-07T10:13:08;24.90;37.70
65462;DHT22;53236;43.666;18.444;2023-05-07T10:15:36;24.80;39.70
65462;DHT22;53236;43.666;18.444;2023-05-07T10:18:03;24.60;38.10
65462;DHT22;53236;43.666;18.444;2023-05-07T10:20:30;24.60;38.70
65462;DHT22;53236;43.666;18.444;2023-05-07T10:22:57;24.50;37.90
65462;DHT22;53236;43.666;18.444;2023-05-07T10:25:30;24.60;39.20
65462;DHT22;53236;43.666;18.444;2023-05-07T10:27:59;24.70;40.40
65462;DHT22;53236;43.666;18.444;2023-05-07T10:33:29;24.50;38.70
65462;DHT22;53236;43.666;18.444;2023-05-07T10:36:00;24.40;39.00
65462;DHT22;53236;43.666;18.444;2023-05-07T10:38:30;24.40;38.70
65462;DHT22;53236;43.666;18.444;2023-05-07T10:40:56;24.20;38.80
65462;DHT22;53236;43.666;18.444;2023-05-07T10:43:22;24.20;38.00
65462;DHT22;53236;43.666;18.444;2023-05-07T10:46:16;24.20;37.80
65462;DHT22;53236;43.666;18.444;2023-05-07T10:51:27;24.40;39.90
65462;DHT22;53236;43.666;18.444;2023-05-07T10:56:39;24.30;39.70
65462;DHT22;53236;43.666;18.444;2023-05-07T10:59:31;24.30;38.00
65462;DHT22;53236;43.666;18.444;2023-05-07T11:02:04;24.10;39.00
65462;DHT22;53236;43.666;18.444;2023-05-07T11:04:32;24.20;40.80
65462;DHT22;53236;43.666;18.444;2023-05-07T11:10:00;24.50;40.40
65462;DHT22;53236;43.666;18.444;2023-05-07T11:17:32;24.50;38.50
65462;DHT22;53236;43.666;18.444;2023-05-07T11:20:01;24.20;42.30
65462;DHT22;53236;43.666;18.444;2023-05-07T11:22:36;23.90;39.40
65462;DHT22;53236;43.666;18.444;2023-05-07T11:25:06;24.20;41.80
65462;DHT22;53236;43.666;18.444;2023-05-07T11:27:32;24.20;41.10
65462;DHT22;53236;43.666;18.444;2023-05-07T11:30:02;24.20;39.80
65462;DHT22;53236;43.666;18.444;2023-05-07T11:32:29;24.20;39.80
65462;DHT22;53236;43.666;18.444;2023-05-07T11:34:57;24.20;41.80
65462;DHT22;53236;43.666;18.444;2023-05-07T11:37:24;24.10;41.50
65462;DHT22;53236;43.666;18.444;2023-05-07T11:39:51;24.20;42.80
65462;DHT22;53236;43.666;18.444;2023-05-07T11:42:32;24.40;41.60
65462;DHT22;53236;43.666;18.444;2023-05-07T11:44:58;24.50;41.10
65462;DHT22;53236;43.666;18.444;2023-05-07T11:47:24;24.60;43.60
65462;DHT22;53236;43.666;18.444;2023-05-07T11:49:54;24.70;42.80
65462;DHT22;53236;43.666;18.444;2023-05-07T11:52:21;24.50;40.60
65462;DHT22;53236;43.666;18.444;2023-05-07T11:54:54;24.30;40.90
65462;DHT22;53236;43.666;18.444;2023-05-07T11:57:21;24.30;40.10
65462;DHT22;53236;43.666;18.444;2023-05-07T11:59:47;24.00;38.20
65462;DHT22;53236;43.666;18.444;2023-05-07T12:02:16;24.00;39.00
65462;DHT22;53236;43.666;18.444;2023-05-07T12:04:42;24.30;40.80
65462;DHT22;53236;43.666;18.444;2023-05-07T12:07:17;24.20;37.80
65462;DHT22;53236;43.666;18.444;2023-05-07T12:09:45;24.20;39.00
65462;DHT22;53236;43.666;18.444;2023-05-07T12:12:11;24.20;38.10
65462;DHT22;53236;43.666;18.444;2023-05-07T12:14:42;24.50;38.20
65462;DHT22;53236;43.666;18.444;2023-05-07T12:17:09;24.60;39.70
65462;DHT22;53236;43.666;18.444;2023-05-07T12:19:36;24.60;41.20
65462;DHT22;53236;43.666;18.444;2023-05-07T12:22:07;24.50;40.90
65462;DHT22;53236;43.666;18.444;2023-05-07T12:24:55;24.80;40.60
65462;DHT22;53236;43.666;18.444;2023-05-07T12:27:21;24.70;39.60
65462;DHT22;53236;43.666;18.444;2023-05-07T12:29:48;24.60;40.20
65462;DHT22;53236;43.666;18.444;2023-05-07T12:32:18;24.70;40.90
65462;DHT22;53236;43.666;18.444;2023-05-07T12:34:45;24.60;39.80
65462;DHT22;53236;43.666;18.444;2023-05-07T12:37:11;24.70;41.00
65462;DHT22;53236;43.666;18.444;2023-05-07T12:39:38;24.70;38.40
65462;DHT22;53236;43.666;18.444;2023-05-07T12:42:15;24.60;39.00
65462;DHT22;53236;43.666;18.444;2023-05-07T12:44:43;24.50;37.50
65462;DHT22;53236;43.666;18.444;2023-05-07T12:47:11;24.50;38.20
65462;DHT22;53236;43.666;18.444;2023-05-07T12:49:39;24.50;39.30
65462;DHT22;53236;43.666;18.444;2023-05-07T12:52:05;24.60;38.90
65462;DHT22;53236;43.666;18.444;2023-05-07T12:54:37;24.50;39.00
65462;DHT22;53236;43.666;18.444;2023-05-07T12:57:07;24.50;39.40
65462;DHT22;53236;43.666;18.444;2023-05-07T12:59:38;24.50;40.60
65462;DHT22;53236;43.666;18.444;2023-05-07T13:02:05;24.60;40.00
65462;DHT22;53236;43.666;18.444;2023-05-07T13:04:31;24.60;39.50
65462;DHT22;53236;43.666;18.444;2023-05-07T13:06:58;24.60;39.80
65462;DHT22;53236;43.666;18.444;2023-05-07T13:09:24;24.50;39.10
65462;DHT22;53236;43.666;18.444;2023-05-07T13:11:50;24.60;39.90
65462;DHT22;53236;43.666;18.444;2023-05-07T13:14:15;24.80;39.20
65462;DHT22;53236;43.666;18.444;2023-05-07T13:16:41;25.00;39.00
65462;DHT22;53236;43.666;18.444;2023-05-07T13:19:07;25.10;39.70
65462;DHT22;53236;43.666;18.444;2023-05-07T13:21:33;24.80;39.10
65462;DHT22;53236;43.666;18.444;2023-05-07T13:23:59;24.70;39.30
65462;DHT22;53236;43.666;18.444;2023-05-07T13:26:25;24.60;39.80
65462;DHT22;53236;43.666;18.444;2023-05-07T13:28:54;24.30;39.70
65462;DHT22;53236;43.666;18.444;2023-05-07T13:31:20;24.30;40.50
65462;DHT22;53236;43.666;18.444;2023-05-07T13:33:46;24.40;38.90
65462;DHT22;53236;43.666;18.444;2023-05-07T13:36:12;24.20;39.10
65462;DHT22;53236;43.666;18.444;2023-05-07T13:38:39;24.20;39.10
65462;DHT22;53236;43.666;18.444;2023-05-07T13:41:05;24.10;39.70
65462;DHT22;53236;43.666;18.444;2023-05-07T13:43:31;24.30;40.70
65462;DHT22;53236;43.666;18.444;2023-05-07T13:45:59;24.20;41.40
65462;DHT22;53236;43.666;18.444;2023-05-07T13:48:25;24.30;40.30
65462;DHT22;53236;43.666;18.444;2023-05-07T13:50:51;24.60;41.60
65462;DHT22;53236;43.666;18.444;2023-05-07T13:53:17;24.40;39.40
65462;DHT22;53236;43.666;18.444;2023-05-07T13:55:44;24.40;40.00
65462;DHT22;53236;43.666;18.444;2023-05-07T13:58:10;24.40;41.10
65462;DHT22;53236;43.666;18.444;2023-05-07T14:00:36;24.40;41.50
65462;DHT22;53236;43.666;18.444;2023-05-07T14:03:04;24.50;39.90
65462;DHT22;53236;43.666;18.444;2023-05-07T14:05:30;24.70;40.90
65462;DHT22;53236;43.666;18.444;2023-05-07T14:07:57;24.90;42.00
65462;DHT22;53236;43.666;18.444;2023-05-07T14:10:23;24.80;40.50
65462;DHT22;53236;43.666;18.444;2023-05-07T14:12:49;24.70;40.30
65462;DHT22;53236;43.666;18.444;2023-05-07T14:15:16;24.70;38.50
65462;DHT22;53236;43.666;18.444;2023-05-07T14:17:42;24.70;39.30
65462;DHT22;53236;43.666;18.444;2023-05-07T14:20:08;24.80;38.20
65462;DHT22;53236;43.666;18.444;2023-05-07T14:22:35;25.00;40.00
65462;DHT22;53236;43.666;18.444;2023-05-07T14:25:01;25.10;39.30
65462;DHT22;53236;43.666;18.444;2023-05-07T14:27:26;25.00;36.70
65462;DHT22;53236;43.666;18.444;2023-05-07T14:29:52;24.80;38.70
65462;DHT22;53236;43.666;18.444;2023-05-07T14:32:18;24.80;39.10
65462;DHT22;53236;43.666;18.444;2023-05-07T14:34:44;24.90;39.60
65462;DHT22;53236;43.666;18.444;2023-05-07T14:37:10;24.80;40.40
65462;DHT22;53236;43.666;18.444;2023-05-07T14:39:36;24.60;39.90
65462;DHT22;53236;43.666;18.444;2023-05-07T14:42:02;24.40;40.00
65462;DHT22;53236;43.666;18.444;2023-05-07T14:44:28;24.40;40.30
65462;DHT22;53236;43.666;18.444;2023-05-07T14:46:54;24.20;40.20
65462;DHT22;53236;43.666;18.444;2023-05-07T14:49:19;24.10;40.20
65462;DHT22;53236;43.666;18.444;2023-05-07T14:51:46;24.00;40.20
65462;DHT22;53236;43.666;18.444;2023-05-07T14:54:13;24.00;40.90
65462;DHT22;53236;43.666;18.444;2023-05-07T14:56:40;24.00;42.10
65462;DHT22;53236;43.666;18.444;2023-05-07T14:59:06;24.00;44.40
65462;DHT22;53236;43.666;18.444;2023-05-07T15:01:33;23.90;41.60
65462;DHT22;53236;43.666;18.444;2023-05-07T15:04:00;23.80;43.20
65462;DHT22;53236;43.666;18.444;2023-05-07T15:06:25;23.80;44.90
65462;DHT22;53236;43.666;18.444;2023-05-07T15:08:52;23.70;44.60
65462;DHT22;53236;43.666;18.444;2023-05-07T15:11:18;23.80;44.00
65462;DHT22;53236;43.666;18.444;2023-05-07T15:13:44;23.60;42.80
65462;DHT22;53236;43.666;18.444;2023-05-07T15:16:10;23.50;43.60
65462;DHT22;53236;43.666;18.444;2023-05-07T15:18:37;23.50;45.10
65462;DHT22;53236;43.666;18.444;2023-05-07T15:21:02;23.60;44.40
65462;DHT22;53236;43.666;18.444;2023-05-07T15:23:28;23.50;44.60
65462;DHT22;53236;43.666;18.444;2023-05-07T15:25:54;23.50;45.60
65462;DHT22;53236;43.666;18.444;2023-05-07T15:28:20;23.40;44.90
65462;DHT22;53236;43.666;18.444;2023-05-07T15:30:46;23.40;45.20
65462;DHT22;53236;43.666;18.444;2023-05-07T15:33:11;23.40;45.40